Time;durP1;ratioP1;P1;durP2;ratioP2;P2;SDS_P1;SDS_P2;PMS_P1;PMS_P2;Temp;Humidity;BMP_temperature;BMP_pressure;BME280_temperature;BME280_humidity;BME280_pressure;Samples;Min_cycle;Max_cycle;Signal;HPM_P1;HPM_P2
2023/03/31 00:02:28;;;;;;;;;;;16.20;95.10;;;;;;5093338;28;19919;-88
2023/03/31 00:04:58;;;;;;;;;;;16.20;95.10;;;;;;5087034;28;19908;-88
2023/03/31 00:07:30;;;;;;;;;;;16.20;95.10;;;;;;5093539;28;19920;-88
2023/03/31 00:10:30;;;;;;;;;;;16.20;95.10;;;;;;5093316;28;19913;-92
2023/03/31 00:12:54;;;;;;;;;;;16.20;95.10;;;;;;5077666;28;19955;-87
2023/03/31 00:15:38;;;;;;;;;;;16.20;95.10;;;;;;5075023;28;19917;-88
2023/03/31 00:18:10;;;;;;;;;;;16.20;95.10;;;;;;5058034;28;19994;-87
2023/03/31 00:20:41;;;;;;;;;;;16.20;95.10;;;;;;5057914;28;19939;-88
2023/03/31 00:23:26;;;;;;;;;;;16.20;95.10;;;;;;5055807;28;19992;-87
2023/03/31 00:25:58;;;;;;;;;;;16.20;95.10;;;;;;5056141;28;19962;-87
2023/03/31 00:28:23;;;;;;;;;;;16.20;95.10;;;;;;5046066;28;20210;-88
2023/03/31 00:30:52;;;;;;;;;;;16.20;95.20;;;;;;5056211;28;20305;-87
2023/03/31 00:33:26;;;;;;;;;;;16.20;95.20;;;;;;5052790;28;19908;-87
2023/03/31 00:42:04;;;;;;;;;;;16.10;95.10;;;;;;5022833;28;19957;-87
2023/03/31 00:44:34;;;;;;;;;;;16.10;95.10;;;;;;5037244;28;19920;-88
2023/03/31 00:47:24;;;;;;;;;;;16.10;95.10;;;;;;5035832;28;20222;-87
2023/03/31 00:52:59;;;;;;;;;;;16.10;95.40;;;;;;5033631;28;20325;-88
2023/03/31 00:56:00;;;;;;;;;;;16.10;95.10;;;;;;5032808;28;19983;-87
2023/03/31 00:58:32;;;;;;;;;;;16.10;95.10;;;;;;4988898;28;20131;-87
2023/03/31 01:00:59;;;;;;;;;;;16.10;95.10;;;;;;4973537;28;19910;-88
2023/03/31 01:03:44;;;;;;;;;;;16.10;95.10;;;;;;5006707;28;19956;-87
2023/03/31 01:06:13;;;;;;;;;;;16.10;95.10;;;;;;5091063;28;19963;-88
2023/03/31 01:12:01;;;;;;;;;;;16.10;95.10;;;;;;5076395;28;19976;-88
2023/03/31 01:14:33;;;;;;;;;;;16.10;95.10;;;;;;5057052;28;19955;-88
2023/03/31 01:17:35;;;;;;;;;;;16.10;95.10;;;;;;5090519;28;19929;-88
2023/03/31 01:20:18;;;;;;;;;;;16.10;95.10;;;;;;5056799;28;19943;-88
2023/03/31 01:26:08;;;;;;;;;;;16.10;95.10;;;;;;5075006;28;20302;-88
2023/03/31 01:31:57;;;;;;;;;;;16.00;95.00;;;;;;5075265;28;19969;-88
2023/03/31 01:38:13;;;;;;;;;;;16.00;95.00;;;;;;5032826;28;19913;-90
2023/03/31 01:44:11;;;;;;;;;;;16.00;95.10;;;;;;5059749;28;19908;-89
2023/03/31 01:46:51;;;;;;;;;;;16.00;95.10;;;;;;5059244;28;19913;-89
2023/03/31 01:55:20;;;;;;;;;;;16.00;95.10;;;;;;5033926;28;19963;-89
2023/03/31 01:57:46;;;;;;;;;;;16.00;95.10;;;;;;5018680;28;20040;-88
2023/03/31 02:00:32;;;;;;;;;;;16.00;95.10;;;;;;5015916;28;20004;-88
2023/03/31 02:03:22;;;;;;;;;;;15.90;95.10;;;;;;5043263;28;20285;-88
2023/03/31 02:06:01;;;;;;;;;;;15.90;95.30;;;;;;5056406;28;20293;-88
2023/03/31 02:08:39;;;;;;;;;;;15.90;95.10;;;;;;5090045;28;20331;-88
2023/03/31 02:11:23;;;;;;;;;;;15.90;95.10;;;;;;5089047;28;19947;-88
2023/03/31 02:13:51;;;;;;;;;;;15.90;95.10;;;;;;5089551;28;20316;-88
2023/03/31 02:16:40;;;;;;;;;;;15.90;95.10;;;;;;5071010;28;19923;-88
2023/03/31 02:19:22;;;;;;;;;;;15.90;95.10;;;;;;5072527;28;19920;-88
2023/03/31 02:21:53;;;;;;;;;;;15.90;95.10;;;;;;5056030;28;19923;-88
2023/03/31 02:24:33;;;;;;;;;;;15.90;95.10;;;;;;5033042;28;19928;-88
2023/03/31 02:27:08;;;;;;;;;;;15.90;95.10;;;;;;5023514;28;20295;-89
2023/03/31 02:30:02;;;;;;;;;;;15.90;95.10;;;;;;5034533;28;19909;-88
2023/03/31 02:32:52;;;;;;;;;;;15.90;95.10;;;;;;5014259;28;20276;-88
2023/03/31 02:35:27;;;;;;;;;;;15.90;95.10;;;;;;5013214;28;19913;-88
2023/03/31 02:37:57;;;;;;;;;;;15.90;95.10;;;;;;5014201;28;19913;-88
2023/03/31 02:40:26;;;;;;;;;;;15.90;95.10;;;;;;4993114;28;19925;-88
2023/03/31 02:42:52;;;;;;;;;;;15.90;95.10;;;;;;4978133;28;19913;-89
2023/03/31 02:45:45;;;;;;;;;;;15.90;95.20;;;;;;4977360;28;19918;-88
2023/03/31 02:48:37;;;;;;;;;;;15.90;95.10;;;;;;4977514;28;20077;-88
2023/03/31 02:51:21;;;;;;;;;;;15.90;95.20;;;;;;4977662;28;19960;-88
2023/03/31 02:54:25;;;;;;;;;;;15.90;95.20;;;;;;4977056;28;20207;-88
2023/03/31 02:56:50;;;;;;;;;;;15.90;95.20;;;;;;4919526;29;19942;-89
2023/03/31 02:59:43;;;;;;;;;;;15.90;95.20;;;;;;4987193;28;19941;-88
2023/03/31 03:02:40;;;;;;;;;;;15.80;95.10;;;;;;4988282;28;19910;-88
2023/03/31 03:11:30;;;;;;;;;;;15.90;95.20;;;;;;4983230;28;19920;-88
2023/03/31 03:14:04;;;;;;;;;;;15.80;95.20;;;;;;4979528;28;19936;-87
2023/03/31 03:16:32;;;;;;;;;;;15.80;95.20;;;;;;4980837;28;20358;-88
2023/03/31 03:19:31;;;;;;;;;;;15.80;95.20;;;;;;5019208;28;20023;-88
2023/03/31 03:22:06;;;;;;;;;;;15.80;95.20;;;;;;5017828;28;19995;-88
2023/03/31 03:24:34;;;;;;;;;;;15.80;95.20;;;;;;5019355;28;20283;-88
2023/03/31 03:27:03;;;;;;;;;;;15.80;95.20;;;;;;4995543;28;19922;-88
2023/03/31 03:32:18;;;;;;;;;;;15.80;95.20;;;;;;4995609;28;19920;-88
2023/03/31 03:40:54;;;;;;;;;;;15.80;95.20;;;;;;4975662;28;19963;-88
2023/03/31 03:43:23;;;;;;;;;;;15.80;95.20;;;;;;4993079;28;20012;-88
2023/03/31 03:45:52;;;;;;;;;;;15.80;95.30;;;;;;4959999;28;20025;-88
2023/03/31 03:48:23;;;;;;;;;;;15.80;95.30;;;;;;4982134;28;19978;-87
2023/03/31 03:51:01;;;;;;;;;;;15.80;95.30;;;;;;5052325;28;20281;-88
2023/03/31 03:53:42;;;;;;;;;;;15.80;95.30;;;;;;5033641;28;19920;-88
2023/03/31 03:56:14;;;;;;;;;;;15.80;95.30;;;;;;5049645;28;19909;-87
2023/03/31 03:58:45;;;;;;;;;;;15.80;95.30;;;;;;5052689;28;20122;-88
2023/03/31 04:01:20;;;;;;;;;;;15.80;95.60;;;;;;5090636;28;20167;-88
2023/03/31 04:04:04;;;;;;;;;;;15.70;95.30;;;;;;5089089;28;19909;-88
2023/03/31 04:06:58;;;;;;;;;;;15.70;95.30;;;;;;5090756;28;19945;-87
2023/03/31 04:09:24;;;;;;;;;;;15.70;95.30;;;;;;5076902;28;19916;-87
2023/03/31 04:11:59;;;;;;;;;;;15.80;95.30;;;;;;5090459;28;19908;-88
2023/03/31 04:14:46;;;;;;;;;;;15.80;95.30;;;;;;5089287;28;19959;-88
2023/03/31 04:17:16;;;;;;;;;;;15.70;95.30;;;;;;5074727;28;19909;-88
2023/03/31 04:19:49;;;;;;;;;;;15.70;95.30;;;;;;5090771;28;19909;-88
2023/03/31 04:22:19;;;;;;;;;;;15.70;95.30;;;;;;5072917;28;19919;-88
2023/03/31 04:24:51;;;;;;;;;;;15.70;95.30;;;;;;5051278;28;20126;-88
2023/03/31 04:27:35;;;;;;;;;;;15.70;95.30;;;;;;5034420;28;19916;-87
2023/03/31 04:30:01;;;;;;;;;;;15.70;95.30;;;;;;5051666;28;19971;-88
2023/03/31 04:32:54;;;;;;;;;;;15.70;95.40;;;;;;5068985;28;20294;-89
2023/03/31 04:35:26;;;;;;;;;;;15.70;95.30;;;;;;5052165;28;19933;-87
2023/03/31 04:40:41;;;;;;;;;;;15.70;95.30;;;;;;4993264;28;19913;-88
2023/03/31 04:43:06;;;;;;;;;;;15.70;95.30;;;;;;5043767;28;19909;-88
2023/03/31 04:45:54;;;;;;;;;;;15.70;95.30;;;;;;5036207;28;19936;-88
2023/03/31 04:48:31;;;;;;;;;;;15.70;95.40;;;;;;5051686;28;19923;-87
2023/03/31 04:51:00;;;;;;;;;;;15.70;95.40;;;;;;5034794;28;20325;-87
2023/03/31 04:53:34;;;;;;;;;;;15.70;95.40;;;;;;5031939;28;20260;-87
2023/03/31 04:55:59;;;;;;;;;;;15.70;95.50;;;;;;5045856;28;19908;-88
2023/03/31 04:58:25;;;;;;;;;;;15.70;95.50;;;;;;5087589;28;19932;-87
2023/03/31 05:00:57;;;;;;;;;;;15.70;95.50;;;;;;5089660;28;19909;-89
2023/03/31 05:03:29;;;;;;;;;;;15.70;95.50;;;;;;5087015;28;20305;-89
2023/03/31 05:05:54;;;;;;;;;;;15.70;95.50;;;;;;5085215;28;19962;-88
2023/03/31 05:08:29;;;;;;;;;;;15.70;95.60;;;;;;5073062;28;19943;-89
2023/03/31 05:10:58;;;;;;;;;;;15.70;95.60;;;;;;5086012;28;20295;-88
2023/03/31 05:13:23;;;;;;;;;;;15.70;95.60;;;;;;5087316;28;20247;-88
2023/03/31 05:18:45;;;;;;;;;;;15.70;95.60;;;;;;5061077;28;19908;-89
2023/03/31 05:21:18;;;;;;;;;;;15.70;95.70;;;;;;5086293;28;19932;-89
2023/03/31 05:24:14;;;;;;;;;;;15.60;95.70;;;;;;5088756;28;19977;-89
2023/03/31 05:26:51;;;;;;;;;;;15.60;95.70;;;;;;5051842;28;19964;-88
2023/03/31 05:29:29;;;;;;;;;;;15.60;95.70;;;;;;5066997;28;19927;-88
2023/03/31 05:31:55;;;;;;;;;;;15.60;95.70;;;;;;5050468;28;20150;-88
2023/03/31 05:34:23;;;;;;;;;;;15.60;95.70;;;;;;5050313;28;20049;-88
2023/03/31 05:36:52;;;;;;;;;;;15.60;95.70;;;;;;5047995;28;20093;-88
2023/03/31 05:39:31;;;;;;;;;;;15.60;95.70;;;;;;5047494;28;20414;-88
2023/03/31 05:42:06;;;;;;;;;;;15.60;95.70;;;;;;5048047;28;19908;-88
2023/03/31 05:44:32;;;;;;;;;;;15.60;95.70;;;;;;5048494;28;19951;-89
2023/03/31 05:47:00;;;;;;;;;;;15.60;95.70;;;;;;5024884;28;19964;-88
2023/03/31 05:49:28;;;;;;;;;;;15.60;95.70;;;;;;5005516;28;19909;-88
2023/03/31 05:51:55;;;;;;;;;;;15.70;95.70;;;;;;5007297;28;19909;-88
2023/03/31 05:54:21;;;;;;;;;;;15.60;95.60;;;;;;5008327;28;19909;-88
2023/03/31 05:56:47;;;;;;;;;;;15.60;95.60;;;;;;5006532;28;20346;-88
2023/03/31 05:59:15;;;;;;;;;;;15.70;96.00;;;;;;5009808;28;19917;-89
2023/03/31 06:01:41;;;;;;;;;;;15.60;95.70;;;;;;5024176;28;20172;-89
2023/03/31 06:04:10;;;;;;;;;;;15.60;95.70;;;;;;5023290;28;19910;-88
2023/03/31 06:07:04;;;;;;;;;;;15.60;95.70;;;;;;5025330;28;19936;-88
2023/03/31 06:09:32;;;;;;;;;;;15.70;95.80;;;;;;5022042;28;19916;-88
2023/03/31 06:12:13;;;;;;;;;;;15.60;95.90;;;;;;5026700;28;19909;-88
2023/03/31 06:14:38;;;;;;;;;;;15.70;96.00;;;;;;5027037;28;19920;-88
2023/03/31 06:17:04;;;;;;;;;;;15.70;96.00;;;;;;5012650;28;19920;-88
2023/03/31 06:19:30;;;;;;;;;;;15.60;96.10;;;;;;5027822;28;19913;-88
2023/03/31 06:22:08;;;;;;;;;;;15.70;96.20;;;;;;5028279;28;19913;-88
2023/03/31 06:24:48;;;;;;;;;;;15.70;96.20;;;;;;5041851;28;19936;-88
2023/03/31 06:27:13;;;;;;;;;;;15.70;96.30;;;;;;5084107;28;20300;-88
2023/03/31 06:29:49;;;;;;;;;;;15.70;96.30;;;;;;5084287;28;19909;-89
2023/03/31 06:35:19;;;;;;;;;;;15.70;96.40;;;;;;5060361;28;19936;-88
2023/03/31 06:38:00;;;;;;;;;;;15.70;96.40;;;;;;5067830;28;20202;-88
2023/03/31 06:40:32;;;;;;;;;;;15.70;96.40;;;;;;5085802;28;19909;-88
2023/03/31 06:43:04;;;;;;;;;;;15.70;96.40;;;;;;5069710;28;19935;-88
2023/03/31 06:45:30;;;;;;;;;;;15.70;96.80;;;;;;5086255;28;19912;-89
2023/03/31 06:51:07;;;;;;;;;;;15.70;96.60;;;;;;5031967;28;20000;-89
2023/03/31 06:53:39;;;;;;;;;;;15.70;96.70;;;;;;5054898;28;19948;-89
2023/03/31 06:56:08;;;;;;;;;;;15.70;96.80;;;;;;5088896;28;20010;-90
2023/03/31 06:58:39;;;;;;;;;;;15.70;96.80;;;;;;5088598;28;19938;-90
2023/03/31 07:01:18;;;;;;;;;;;15.70;96.90;;;;;;5089105;28;19948;-90
2023/03/31 07:03:44;;;;;;;;;;;15.70;97.00;;;;;;5088762;28;19917;-89
2023/03/31 07:06:48;;;;;;;;;;;15.60;97.00;;;;;;5088072;28;20198;-90
2023/03/31 07:09:54;;;;;;;;;;;15.70;97.10;;;;;;5089595;28;19948;-89
2023/03/31 07:12:31;;;;;;;;;;;15.70;97.20;;;;;;5087261;28;20041;-89
2023/03/31 07:14:56;;;;;;;;;;;15.60;97.20;;;;;;5088712;28;19931;-88
2023/03/31 07:17:24;;;;;;;;;;;15.70;97.30;;;;;;5085163;28;20140;-88
2023/03/31 07:19:49;;;;;;;;;;;15.70;97.30;;;;;;5086589;28;19986;-89
2023/03/31 07:22:18;;;;;;;;;;;15.70;97.30;;;;;;5086370;28;19908;-88
2023/03/31 07:24:46;;;;;;;;;;;15.70;97.40;;;;;;5087499;28;19909;-88
2023/03/31 07:27:12;;;;;;;;;;;15.70;97.40;;;;;;5086532;28;19923;-89
2023/03/31 07:29:41;;;;;;;;;;;15.70;97.40;;;;;;5069937;28;20027;-88
2023/03/31 07:32:12;;;;;;;;;;;15.70;97.40;;;;;;5091438;28;20020;-88
2023/03/31 07:34:41;;;;;;;;;;;15.70;97.40;;;;;;5086232;28;20163;-88
2023/03/31 07:37:06;;;;;;;;;;;15.70;97.40;;;;;;5084461;28;19909;-88
2023/03/31 07:39:32;;;;;;;;;;;15.70;97.40;;;;;;5084514;28;20154;-89
2023/03/31 07:42:00;;;;;;;;;;;15.70;97.30;;;;;;5083648;28;20016;-88
2023/03/31 07:44:26;;;;;;;;;;;15.70;97.30;;;;;;5085662;28;19909;-87
2023/03/31 07:47:05;;;;;;;;;;;15.70;97.30;;;;;;5084463;28;19973;-88
2023/03/31 07:49:31;;;;;;;;;;;15.70;97.30;;;;;;5085066;28;20177;-88
2023/03/31 07:51:57;;;;;;;;;;;15.70;97.30;;;;;;5085776;28;19909;-88
2023/03/31 07:54:22;;;;;;;;;;;15.70;97.30;;;;;;5086319;28;19962;-88
2023/03/31 07:56:48;;;;;;;;;;;15.70;97.30;;;;;;5086136;28;19909;-87
2023/03/31 07:59:13;;;;;;;;;;;15.80;97.40;;;;;;5086587;28;19927;-88
2023/03/31 08:01:39;;;;;;;;;;;15.70;97.40;;;;;;5086131;28;19971;-88
2023/03/31 08:04:11;;;;;;;;;;;15.80;97.40;;;;;;5085893;28;19966;-89
2023/03/31 08:06:39;;;;;;;;;;;15.80;97.30;;;;;;5086031;28;20019;-87
2023/03/31 08:09:11;;;;;;;;;;;15.80;97.30;;;;;;5085828;28;19919;-88
2023/03/31 08:11:39;;;;;;;;;;;15.80;97.60;;;;;;5086426;28;19920;-88
2023/03/31 08:14:11;;;;;;;;;;;15.90;97.40;;;;;;5087261;28;20057;-88
2023/03/31 08:16:42;;;;;;;;;;;15.90;97.60;;;;;;5084277;28;20492;-87
2023/03/31 08:19:08;;;;;;;;;;;15.90;98.40;;;;;;5082855;28;19927;-88
2023/03/31 08:21:34;;;;;;;;;;;15.90;98.80;;;;;;5082965;28;19916;-87
2023/03/31 08:24:12;;;;;;;;;;;15.90;98.80;;;;;;5082976;28;19917;-88
2023/03/31 08:26:46;;;;;;;;;;;16.00;98.80;;;;;;5084402;28;19928;-88
2023/03/31 08:29:18;;;;;;;;;;;16.00;98.80;;;;;;5052078;28;19908;-88
2023/03/31 08:31:44;;;;;;;;;;;16.10;98.60;;;;;;5069319;28;20015;-87
2023/03/31 08:34:12;;;;;;;;;;;16.10;98.40;;;;;;5084663;28;19995;-87
2023/03/31 08:36:41;;;;;;;;;;;16.00;98.20;;;;;;5050974;28;19920;-88
2023/03/31 08:39:07;;;;;;;;;;;16.00;98.10;;;;;;5083464;28;20356;-88
2023/03/31 08:41:52;;;;;;;;;;;16.00;98.10;;;;;;5084895;28;20324;-88
2023/03/31 08:44:29;;;;;;;;;;;16.10;98.00;;;;;;5047652;28;19908;-88
2023/03/31 08:47:01;;;;;;;;;;;16.10;97.90;;;;;;5067205;28;20010;-88
2023/03/31 08:49:27;;;;;;;;;;;16.10;97.80;;;;;;5082543;28;19920;-88
2023/03/31 08:51:56;;;;;;;;;;;16.10;97.60;;;;;;5080866;28;19948;-88
2023/03/31 08:55:03;;;;;;;;;;;16.10;97.60;;;;;;5082284;28;19909;-88
2023/03/31 08:57:58;;;;;;;;;;;16.20;97.50;;;;;;4988724;28;20043;-88
2023/03/31 09:00:28;;;;;;;;;;;16.20;97.40;;;;;;4924120;29;20344;-88
2023/03/31 09:03:21;;;;;;;;;;;16.20;97.30;;;;;;4909047;29;19911;-88
2023/03/31 09:06:07;;;;;;;;;;;16.20;97.20;;;;;;4925416;29;20015;-88
2023/03/31 09:08:42;;;;;;;;;;;16.20;97.10;;;;;;4937967;28;20280;-88
2023/03/31 09:11:15;;;;;;;;;;;16.30;96.90;;;;;;5003978;28;20270;-88
2023/03/31 09:13:53;;;;;;;;;;;16.40;96.70;;;;;;5065955;28;19908;-88
2023/03/31 09:16:33;;;;;;;;;;;16.50;96.50;;;;;;5082517;28;19909;-88
2023/03/31 09:19:06;;;;;;;;;;;16.50;96.30;;;;;;5067922;28;19916;-88
2023/03/31 09:21:45;;;;;;;;;;;16.60;96.30;;;;;;5082398;28;20056;-88
2023/03/31 09:24:15;;;;;;;;;;;16.50;96.20;;;;;;5082839;28;19920;-88
2023/03/31 09:26:45;;;;;;;;;;;16.60;96.30;;;;;;5082503;28;19921;-88
2023/03/31 09:29:23;;;;;;;;;;;16.70;96.20;;;;;;5080217;28;19908;-87
2023/03/31 09:31:52;;;;;;;;;;;16.70;96.00;;;;;;5064116;28;20068;-88
2023/03/31 09:34:24;;;;;;;;;;;16.80;95.70;;;;;;5078288;28;19909;-88
2023/03/31 09:36:49;;;;;;;;;;;16.90;95.50;;;;;;5081601;28;19913;-88
2023/03/31 09:39:15;;;;;;;;;;;17.00;95.40;;;;;;5082222;28;19924;-88
2023/03/31 09:41:55;;;;;;;;;;;16.90;95.20;;;;;;5081835;28;19970;-88
2023/03/31 09:44:39;;;;;;;;;;;17.00;95.20;;;;;;5084094;28;19909;-88
2023/03/31 09:47:15;;;;;;;;;;;16.90;95.30;;;;;;5080544;28;20060;-88
2023/03/31 09:49:44;;;;;;;;;;;17.00;95.20;;;;;;5080607;28;19908;-88
2023/03/31 09:52:24;;;;;;;;;;;17.00;95.30;;;;;;5079879;28;20320;-88
2023/03/31 09:54:52;;;;;;;;;;;16.90;95.40;;;;;;5079472;28;19909;-88
2023/03/31 09:57:23;;;;;;;;;;;16.80;95.60;;;;;;5044809;28;20148;-88
2023/03/31 09:59:52;;;;;;;;;;;16.80;95.70;;;;;;5064596;28;19999;-88
2023/03/31 10:02:35;;;;;;;;;;;16.80;95.70;;;;;;5080561;28;19908;-88
2023/03/31 10:05:01;;;;;;;;;;;16.80;95.70;;;;;;5080544;28;19913;-87
2023/03/31 10:07:27;;;;;;;;;;;16.90;95.60;;;;;;5079670;28;19921;-88
2023/03/31 10:09:53;;;;;;;;;;;17.00;95.40;;;;;;5080484;28;19909;-88
2023/03/31 10:12:27;;;;;;;;;;;17.00;95.30;;;;;;5079772;28;19916;-88
2023/03/31 10:15:13;;;;;;;;;;;17.00;95.30;;;;;;5063967;28;19908;-88
2023/03/31 10:17:41;;;;;;;;;;;17.00;95.30;;;;;;5080878;28;19998;-88
2023/03/31 10:20:30;;;;;;;;;;;17.10;95.40;;;;;;5082366;28;19908;-88
2023/03/31 10:23:18;;;;;;;;;;;17.10;95.20;;;;;;5049345;28;19919;-88
2023/03/31 10:25:46;;;;;;;;;;;17.20;95.10;;;;;;5042535;28;20214;-87
2023/03/31 10:28:17;;;;;;;;;;;17.20;95.00;;;;;;5074086;28;19912;-88
2023/03/31 10:31:07;;;;;;;;;;;17.10;95.00;;;;;;5073816;28;19935;-88
2023/03/31 10:33:52;;;;;;;;;;;17.20;95.00;;;;;;5054934;28;19920;-87
2023/03/31 10:36:33;;;;;;;;;;;17.10;95.50;;;;;;5089662;28;19935;-88
2023/03/31 10:39:06;;;;;;;;;;;17.00;95.40;;;;;;5087433;28;20003;-89
2023/03/31 10:41:32;;;;;;;;;;;17.00;95.70;;;;;;5087985;28;20258;-88
2023/03/31 10:44:04;;;;;;;;;;;16.90;95.90;;;;;;5088444;28;19920;-88
2023/03/31 10:46:41;;;;;;;;;;;16.90;96.10;;;;;;5073458;28;20270;-88
2023/03/31 10:49:33;;;;;;;;;;;16.90;96.10;;;;;;5090096;28;19959;-88
2023/03/31 10:52:01;;;;;;;;;;;16.90;96.20;;;;;;5064107;28;20061;-88
2023/03/31 10:54:27;;;;;;;;;;;17.00;96.20;;;;;;5086238;28;19919;-88
2023/03/31 10:57:11;;;;;;;;;;;17.00;96.20;;;;;;5084074;28;20078;-88
2023/03/31 10:59:52;;;;;;;;;;;17.10;95.90;;;;;;5050420;28;19973;-87
2023/03/31 11:02:24;;;;;;;;;;;17.30;95.70;;;;;;5087856;28;20214;-87
2023/03/31 11:04:53;;;;;;;;;;;17.40;95.20;;;;;;5069956;28;19936;-87
2023/03/31 11:07:18;;;;;;;;;;;17.50;94.80;;;;;;5085432;28;20217;-87
2023/03/31 11:09:59;;;;;;;;;;;17.70;94.60;;;;;;5081752;28;20214;-87
2023/03/31 11:12:48;;;;;;;;;;;17.70;94.20;;;;;;5084494;28;19908;-87
2023/03/31 11:15:49;;;;;;;;;;;17.80;94.00;;;;;;5053473;28;20011;-87
2023/03/31 11:18:31;;;;;;;;;;;17.90;93.80;;;;;;5040928;28;19923;-87
2023/03/31 11:21:06;;;;;;;;;;;17.90;93.80;;;;;;5085644;28;20031;-87
2023/03/31 11:23:52;;;;;;;;;;;18.00;93.60;;;;;;5085559;28;19915;-88
2023/03/31 11:26:17;;;;;;;;;;;18.00;93.50;;;;;;5069651;28;19924;-88
2023/03/31 11:28:52;;;;;;;;;;;17.90;93.50;;;;;;5085932;28;19981;-89
2023/03/31 11:31:46;;;;;;;;;;;17.80;93.70;;;;;;5082446;28;19916;-14
2023/03/31 11:34:24;;;;;;;;;;;17.70;94.00;;;;;;5114907;28;19912;-17
2023/03/31 11:37:10;;;;;;;;;;;17.60;94.20;;;;;;5116433;28;19998;-16
2023/03/31 11:39:42;;;;;;;;;;;17.50;94.30;;;;;;5081673;28;20273;-14
2023/03/31 11:42:43;;;;;;;;;;;17.50;94.40;;;;;;5079717;28;20084;-14
2023/03/31 11:45:23;;;;;;;;;;;17.50;94.50;;;;;;5069042;28;20022;-14
2023/03/31 11:47:54;;;;;;;;;;;17.40;94.60;;;;;;5082250;28;19908;-18
2023/03/31 11:50:24;;;;;;;;;;;17.40;94.60;;;;;;5081040;28;20023;-17
2023/03/31 11:53:10;;;;;;;;;;;17.40;94.70;;;;;;5083661;28;19908;-16
2023/03/31 11:55:38;;;;;;;;;;;17.40;94.80;;;;;;5080911;28;20307;-15
2023/03/31 11:58:27;;;;;;;;;;;17.40;94.70;;;;;;5082964;28;19919;-16
2023/03/31 12:01:06;;;;;;;;;;;17.50;94.70;;;;;;5076650;28;20057;-16
2023/03/31 12:03:51;;;;;;;;;;;17.50;94.60;;;;;;5081767;28;20163;-16
2023/03/31 12:06:26;;;;;;;;;;;17.60;94.50;;;;;;5081779;28;20019;-15
2023/03/31 12:08:52;;;;;;;;;;;17.70;94.20;;;;;;5081825;28;20007;-17
2023/03/31 12:11:28;;;;;;;;;;;17.70;94.00;;;;;;5115774;28;20038;-14
2023/03/31 12:14:18;;;;;;;;;;;17.80;93.90;;;;;;5083286;28;20034;-12
2023/03/31 12:17:02;;;;;;;;;;;17.80;93.70;;;;;;5117274;28;20000;-16
2023/03/31 12:19:40;;;;;;;;;;;17.80;93.60;;;;;;5083419;28;19978;-14
2023/03/31 12:22:10;;;;;;;;;;;17.80;93.60;;;;;;5082691;28;19908;-16
2023/03/31 12:24:36;;;;;;;;;;;17.80;93.60;;;;;;5080566;28;19981;-18
2023/03/31 12:27:12;;;;;;;;;;;17.80;93.70;;;;;;5078895;28;19909;-15
2023/03/31 12:30:04;;;;;;;;;;;17.80;93.80;;;;;;5082930;28;20297;-18
2023/03/31 12:32:31;;;;;;;;;;;17.80;93.80;;;;;;5080976;28;19916;-15
2023/03/31 12:35:15;;;;;;;;;;;17.80;93.70;;;;;;5081231;28;20006;-16
2023/03/31 12:38:02;;;;;;;;;;;17.80;93.70;;;;;;5081252;28;20003;-18
2023/03/31 12:40:37;;;;;;;;;;;17.80;93.70;;;;;;5105737;28;20295;-14
2023/03/31 12:43:25;;;;;;;;;;;17.70;94.00;;;;;;5068012;28;19909;-14
2023/03/31 12:46:08;;;;;;;;;;;17.70;93.80;;;;;;5068669;28;19947;-14
2023/03/31 12:48:34;;;;;;;;;;;17.70;93.80;;;;;;5074618;28;20013;-15
2023/03/31 12:51:22;;;;;;;;;;;17.70;94.00;;;;;;5075929;28;20005;-17
2023/03/31 12:54:15;;;;;;;;;;;17.60;94.00;;;;;;5076328;28;19924;-16
2023/03/31 12:57:16;;;;;;;;;;;17.60;94.10;;;;;;5073958;28;19908;-16
2023/03/31 12:59:43;;;;;;;;;;;17.60;94.10;;;;;;5072664;28;19998;-15
2023/03/31 13:02:28;;;;;;;;;;;17.60;94.10;;;;;;5074164;28;20015;-18
2023/03/31 13:05:16;;;;;;;;;;;17.60;94.10;;;;;;5073439;28;19981;-15
2023/03/31 13:07:44;;;;;;;;;;;17.60;94.20;;;;;;5078223;28;19908;-17
2023/03/31 13:10:15;;;;;;;;;;;17.60;94.30;;;;;;5077322;28;19912;-18
2023/03/31 13:12:59;;;;;;;;;;;17.50;94.30;;;;;;5069711;28;19908;-16
2023/03/31 13:15:31;;;;;;;;;;;17.50;94.40;;;;;;5059058;28;19909;-16
2023/03/31 13:17:58;;;;;;;;;;;17.50;94.40;;;;;;5108092;28;19981;-17
2023/03/31 13:20:35;;;;;;;;;;;17.60;94.30;;;;;;5074295;28;19908;-18
2023/03/31 13:23:02;;;;;;;;;;;17.70;94.20;;;;;;5076954;28;19912;-17
2023/03/31 13:25:42;;;;;;;;;;;17.70;94.00;;;;;;5077580;28;20327;-16
2023/03/31 13:28:20;;;;;;;;;;;17.70;93.90;;;;;;5075301;28;20428;-16
2023/03/31 13:30:48;;;;;;;;;;;17.80;93.80;;;;;;5090403;22;19992;-17
2023/03/31 13:33:35;;;;;;;;;;;17.80;93.80;;;;;;5108143;28;19919;-17
2023/03/31 13:36:00;;;;;;;;;;;17.70;93.90;;;;;;5107280;28;19916;-17
2023/03/31 13:38:34;;;;;;;;;;;17.50;94.10;;;;;;5109900;28;19907;-15
2023/03/31 13:41:18;;;;;;;;;;;17.50;94.30;;;;;;5092134;28;19958;-18
2023/03/31 13:43:59;;;;;;;;;;;17.50;94.40;;;;;;5110195;28;19908;-18
2023/03/31 13:46:49;;;;;;;;;;;17.50;94.50;;;;;;5089228;28;20012;-14
2023/03/31 13:49:33;;;;;;;;;;;17.50;94.40;;;;;;5068075;28;20143;-17
2023/03/31 13:52:19;;;;;;;;;;;17.60;94.30;;;;;;5107797;28;20204;-18
2023/03/31 13:55:08;;;;;;;;;;;17.60;94.20;;;;;;5115075;28;19961;-17
2023/03/31 13:57:54;;;;;;;;;;;17.70;94.10;;;;;;5109984;28;20202;-18
2023/03/31 14:00:26;;;;;;;;;;;17.70;94.10;;;;;;5110589;28;19908;-16
2023/03/31 14:03:18;;;;;;;;;;;17.70;94.00;;;;;;5105379;28;20204;-16
2023/03/31 14:05:56;;;;;;;;;;;17.70;94.10;;;;;;5106127;28;19907;-17
2023/03/31 14:08:40;;;;;;;;;;;17.60;94.10;;;;;;5092208;28;20139;-19
2023/03/31 14:11:27;;;;;;;;;;;17.60;94.20;;;;;;5089777;28;19993;-17
2023/03/31 14:14:03;;;;;;;;;;;17.60;94.40;;;;;;5107350;28;20046;-17
2023/03/31 14:16:39;;;;;;;;;;;17.50;94.40;;;;;;5105300;28;19915;-17
2023/03/31 14:19:17;;;;;;;;;;;17.50;94.60;;;;;;5107719;28;19915;-15
2023/03/31 14:21:47;;;;;;;;;;;17.40;94.60;;;;;;5109921;28;19911;-17
2023/03/31 14:24:20;;;;;;;;;;;17.50;94.70;;;;;;5099399;28;20299;-17
2023/03/31 14:26:55;;;;;;;;;;;17.50;94.70;;;;;;5117902;28;19990;-17
2023/03/31 14:29:40;;;;;;;;;;;17.60;94.60;;;;;;5117573;28;19908;-17
2023/03/31 14:32:16;;;;;;;;;;;17.60;94.50;;;;;;5108454;28;19915;-18
2023/03/31 14:34:48;;;;;;;;;;;17.60;94.50;;;;;;5097403;28;19907;-17
2023/03/31 14:37:21;;;;;;;;;;;17.60;94.50;;;;;;5090581;28;20367;-17
2023/03/31 14:42:39;;;;;;;;;;;17.50;94.60;;;;;;5106836;28;19914;-17
2023/03/31 14:45:30;;;;;;;;;;;17.40;94.60;;;;;;5106964;28;20204;-17
2023/03/31 14:47:57;;;;;;;;;;;17.40;94.80;;;;;;5104833;28;20014;-18
2023/03/31 14:50:32;;;;;;;;;;;17.40;94.80;;;;;;5107159;28;20353;-16
2023/03/31 14:53:00;;;;;;;;;;;17.50;94.80;;;;;;5108343;28;19908;-17
2023/03/31 14:55:27;;;;;;;;;;;17.50;94.80;;;;;;5086390;28;20158;-18
2023/03/31 14:57:54;;;;;;;;;;;17.50;94.80;;;;;;5106504;28;20001;-14
2023/03/31 15:00:27;;;;;;;;;;;17.50;94.70;;;;;;5088429;28;19971;-16
2023/03/31 15:02:57;;;;;;;;;;;17.50;94.70;;;;;;5089752;28;19934;-16
2023/03/31 15:05:25;;;;;;;;;;;17.50;94.70;;;;;;5108602;28;19916;-16
2023/03/31 15:07:53;;;;;;;;;;;17.50;94.70;;;;;;5106599;28;20172;-15
2023/03/31 15:10:19;;;;;;;;;;;17.50;94.80;;;;;;5089675;28;20100;-17
2023/03/31 15:13:01;;;;;;;;;;;17.40;94.90;;;;;;5107081;28;19919;-17
2023/03/31 15:15:32;;;;;;;;;;;17.40;95.00;;;;;;5091259;28;19915;-18
2023/03/31 15:17:58;;;;;;;;;;;17.30;95.10;;;;;;5106497;28;19914;-18
2023/03/31 15:20:27;;;;;;;;;;;17.30;95.40;;;;;;5087614;28;20014;-16
2023/03/31 15:23:00;;;;;;;;;;;17.30;95.50;;;;;;5108492;28;19914;-15
2023/03/31 15:25:28;;;;;;;;;;;17.30;95.30;;;;;;5090682;28;20108;-18
2023/03/31 15:28:05;;;;;;;;;;;17.30;95.30;;;;;;5109334;28;20299;-18
2023/03/31 15:30:31;;;;;;;;;;;17.30;95.40;;;;;;5111070;28;19912;-17
2023/03/31 15:32:56;;;;;;;;;;;17.20;95.40;;;;;;5094220;28;20129;-14
2023/03/31 15:35:36;;;;;;;;;;;17.20;95.50;;;;;;5110320;28;19991;-16
2023/03/31 15:38:03;;;;;;;;;;;17.20;95.70;;;;;;5089170;28;20203;-16
2023/03/31 15:40:35;;;;;;;;;;;17.10;95.70;;;;;;5109406;28;19965;-16
2023/03/31 15:43:17;;;;;;;;;;;17.10;95.80;;;;;;5106835;28;19914;-16
2023/03/31 15:48:52;;;;;;;;;;;17.10;96.00;;;;;;5076926;28;19960;-15
2023/03/31 15:51:24;;;;;;;;;;;17.00;96.10;;;;;;5106043;28;20004;-16
2023/03/31 15:53:55;;;;;;;;;;;17.00;96.20;;;;;;5108286;28;20022;-17
2023/03/31 15:56:31;;;;;;;;;;;17.00;96.20;;;;;;5090404;28;19988;-15
2023/03/31 15:59:01;;;;;;;;;;;17.00;96.30;;;;;;5108587;28;19915;-18
2023/03/31 16:01:33;;;;;;;;;;;17.00;96.40;;;;;;5107526;28;19908;-16
2023/03/31 16:04:02;;;;;;;;;;;16.90;96.40;;;;;;5090170;28;20047;-17
2023/03/31 16:09:24;;;;;;;;;;;16.90;96.50;;;;;;5108288;28;20079;-16
2023/03/31 16:12:11;;;;;;;;;;;16.90;96.60;;;;;;5101279;28;19947;-16